Time;durP1;ratioP1;P1;durP2;ratioP2;P2;SDS_P1;SDS_P2;PMS_P1;PMS_P2;Temp;Humidity;BMP_temperature;BMP_pressure;BME280_temperature;BME280_humidity;BME280_pressure;Samples;Min_cycle;Max_cycle;Signal;HPM_P1;HPM_P2
2021/09/21 00:01:47;;;;;;;9.70;5.57;;;;;;;12.13;81.01;101544.75;5044202;28;20037;-79
2021/09/21 00:04:12;;;;;;;8.68;5.80;;;;;;;12.07;81.16;101544.69;5045176;28;20388;-79
2021/09/21 00:06:38;;;;;;;8.10;5.38;;;;;;;12.05;81.14;101546.44;5044042;28;20108;-80
2021/09/21 00:09:04;;;;;;;7.63;5.10;;;;;;;12.08;80.99;101549.13;5049436;28;20095;-80
2021/09/21 00:11:29;;;;;;;7.28;4.70;;;;;;;12.16;80.51;101549.16;5045929;28;20091;-80
2021/09/21 00:13:55;;;;;;;6.28;4.75;;;;;;;12.22;80.01;101554.47;5039873;28;20042;-80
2021/09/21 00:16:20;;;;;;;7.40;5.47;;;;;;;12.25;79.26;101555.34;5047188;28;20116;-80
2021/09/21 00:18:47;;;;;;;8.13;5.18;;;;;;;12.26;79.12;101549.19;5044814;28;20048;-81
2021/09/21 00:21:13;;;;;;;8.00;5.53;;;;;;;12.17;79.59;101546.50;5046676;28;20132;-80
2021/09/21 00:23:38;;;;;;;7.30;5.85;;;;;;;12.22;79.19;101555.34;5044382;28;20471;-80
2021/09/21 00:26:04;;;;;;;7.25;4.70;;;;;;;12.27;79.09;101548.31;5045443;28;20033;-80
2021/09/21 00:28:29;;;;;;;9.05;5.10;;;;;;;12.28;79.18;101549.19;5044647;28;20035;-81
2021/09/21 00:31:02;;;;;;;6.63;4.97;;;;;;;12.26;79.14;101550.94;5035387;28;20029;-80
2021/09/21 00:33:34;;;;;;;7.03;5.28;;;;;;;12.23;79.29;101557.09;5043107;28;20033;-80
2021/09/21 00:35:59;;;;;;;9.75;5.78;;;;;;;12.30;78.93;101549.19;5036538;28;20723;-80
2021/09/21 00:38:24;;;;;;;9.43;5.40;;;;;;;12.22;78.89;101555.34;5041056;28;20081;-80
2021/09/21 00:40:50;;;;;;;7.55;5.15;;;;;;;12.21;79.33;101548.31;5044723;28;20043;-80
2021/09/21 00:43:23;;;;;;;8.50;5.55;;;;;;;12.23;79.29;101545.63;5018276;28;20029;-81
2021/09/21 00:45:52;;;;;;;8.95;5.38;;;;;;;12.11;80.02;101546.50;5044459;28;20471;-81
2021/09/21 00:48:18;;;;;;;7.45;4.65;;;;;;;12.19;79.51;101550.06;5016854;28;20108;-81
2021/09/21 00:50:44;;;;;;;7.32;5.38;;;;;;;12.24;78.73;101550.06;5016689;28;20029;-81
2021/09/21 00:53:09;;;;;;;6.50;4.47;;;;;;;12.23;78.73;101551.81;5034891;28;20502;-80
2021/09/21 00:55:35;;;;;;;8.95;5.15;;;;;;;12.27;78.70;101550.06;5044512;28;20063;-79
2021/09/21 00:58:00;;;;;;;6.40;4.90;;;;;;;12.25;77.96;101558.00;5043707;28;20123;-79
2021/09/21 01:00:26;;;;;;;8.35;5.47;;;;;;;12.24;78.06;101550.94;5043124;28;20073;-80
2021/09/21 01:02:51;;;;;;;8.70;5.50;;;;;;;12.22;77.67;101544.75;5045327;28;20037;-80
2021/09/21 01:05:17;;;;;;;10.48;5.45;;;;;;;12.24;77.24;101545.66;5032445;28;20404;-81
2021/09/21 01:07:43;;;;;;;8.35;5.25;;;;;;;12.24;77.66;101553.59;5045568;28;20033;-80
2021/09/21 01:10:15;;;;;;;8.75;5.55;;;;;;;12.20;77.59;101551.81;5040928;28;20029;-80
2021/09/21 01:12:40;;;;;;;7.55;4.85;;;;;;;12.14;76.62;101545.63;5038801;28;20041;-80
2021/09/21 01:15:08;;;;;;;8.90;5.15;;;;;;;12.08;76.70;101554.44;5045461;28;20419;-80
2021/09/21 01:17:34;;;;;;;8.30;5.07;;;;;;;12.11;76.83;101546.50;5037927;28;20116;-80
2021/09/21 01:19:59;;;;;;;7.20;5.28;;;;;;;12.16;76.27;101550.03;5045429;28;20518;-80
2021/09/21 01:22:25;;;;;;;7.95;5.05;;;;;;;12.16;76.33;101552.69;5042300;28;20407;-80
2021/09/21 01:24:51;;;;;;;8.27;5.22;;;;;;;12.15;75.82;101550.03;5035367;28;20041;-79
2021/09/21 01:27:16;;;;;;;6.93;4.57;;;;;;;12.16;75.50;101550.03;5043182;28;20029;-80
2021/09/21 01:29:43;;;;;;;7.13;5.13;;;;;;;12.20;75.98;101548.28;5043447;28;20041;-80
2021/09/21 01:32:08;;;;;;;12.13;4.72;;;;;;;12.21;75.78;101558.88;5043568;28;20503;-80
2021/09/21 01:34:35;;;;;;;9.13;5.40;;;;;;;12.20;76.42;101550.94;5042645;28;20073;-79
2021/09/21 01:37:01;;;;;;;8.35;5.60;;;;;;;12.18;75.73;101548.28;5042831;28;20870;-80
2021/09/21 01:39:26;;;;;;;8.80;5.80;;;;;;;12.16;75.58;101549.16;5041654;28;20044;-80
2021/09/21 01:41:52;;;;;;;7.10;5.10;;;;;;;12.15;75.06;101553.56;5044465;28;20048;-80
2021/09/21 01:44:18;;;;;;;7.32;5.15;;;;;;;12.19;74.87;101546.53;5042077;28;20025;-80
2021/09/21 01:46:45;;;;;;;8.07;5.32;;;;;;;12.18;75.21;101544.75;5043916;28;20033;-80
2021/09/21 01:49:15;;;;;;;7.50;5.30;;;;;;;12.18;75.63;101552.69;5041796;28;20110;-79
2021/09/21 01:51:47;;;;;;;7.95;5.32;;;;;;;12.17;75.43;101546.50;5039110;28;20529;-80
2021/09/21 01:54:16;;;;;;;8.30;5.10;;;;;;;12.14;75.79;101545.63;5041668;28;20175;-80
2021/09/21 01:59:27;;;;;;;8.80;5.35;;;;;;;12.23;75.59;101551.81;5038173;28;20037;-79
2021/09/21 02:01:52;;;;;;;9.65;5.50;;;;;;;12.14;75.08;101550.91;5044034;28;20037;-79
2021/09/21 02:04:19;;;;;;;9.57;6.57;;;;;;;12.13;75.11;101547.41;5036508;28;20065;-80
2021/09/21 02:06:44;;;;;;;7.53;5.07;;;;;;;12.12;74.47;101548.25;5039945;28;20037;-80
2021/09/21 02:09:12;;;;;;;8.32;5.28;;;;;;;12.14;74.22;101548.28;5042580;28;20044;-80
2021/09/21 02:11:41;;;;;;;7.93;5.57;;;;;;;12.12;74.18;101550.91;5043088;28;20030;-79
2021/09/21 02:14:08;;;;;;;8.68;5.28;;;;;;;12.10;73.67;101546.47;5042305;28;20036;-80
2021/09/21 02:16:34;;;;;;;7.88;5.65;;;;;;;12.09;73.82;101553.53;5043295;28;20030;-80
2021/09/21 02:19:00;;;;;;;9.95;6.20;;;;;;;12.06;72.98;101548.25;5042825;28;20071;-79
2021/09/21 02:21:27;;;;;;;7.60;5.38;;;;;;;11.96;73.21;101551.72;5045138;28;20045;-79
2021/09/21 02:23:56;;;;;;;7.93;5.05;;;;;;;11.99;73.35;101547.31;5042941;28;20037;-79
2021/09/21 02:26:22;;;;;;;18.52;6.53;;;;;;;12.00;73.93;101559.69;5040202;28;20061;-80
2021/09/21 02:28:47;;;;;;;10.02;5.75;;;;;;;12.04;73.68;101560.56;5043246;28;20052;-80
2021/09/21 02:31:13;;;;;;;8.02;5.53;;;;;;;12.05;73.50;101552.66;5037025;28;20052;-80
2021/09/21 02:33:38;;;;;;;9.85;5.55;;;;;;;12.05;73.15;101544.72;5038502;28;20056;-80
2021/09/21 02:36:05;;;;;;;7.80;5.13;;;;;;;12.08;73.20;101551.78;5044590;28;20076;-78
2021/09/21 02:38:32;;;;;;;8.05;5.43;;;;;;;12.04;73.35;101556.16;5037326;28;20041;-79
2021/09/21 02:40:58;;;;;;;6.85;5.10;;;;;;;12.12;73.44;101548.25;5044409;28;20044;-80
2021/09/21 02:43:24;;;;;;;7.40;5.00;;;;;;;12.13;73.53;101555.34;5036797;28;20037;-79
2021/09/21 02:45:49;;;;;;;11.23;5.47;;;;;;;12.08;73.70;101562.38;5015663;28;20499;-80
2021/09/21 02:48:16;;;;;;;8.93;4.88;;;;;;;12.01;73.75;101561.44;5043755;28;20445;-79
2021/09/21 02:50:42;;;;;;;7.53;5.63;;;;;;;11.96;73.66;101568.47;5043242;28;20049;-79
2021/09/21 02:53:07;;;;;;;7.32;5.38;;;;;;;11.92;73.14;101563.16;5046702;28;20033;-79
2021/09/21 02:55:33;;;;;;;7.95;5.55;;;;;;;11.88;73.13;101564.03;5045420;28;20040;-79
2021/09/21 02:57:58;;;;;;;10.20;5.40;;;;;;;11.91;73.79;101561.41;5045954;28;20454;-80
2021/09/21 03:00:26;;;;;;;9.90;6.13;;;;;;;11.92;73.33;101565.78;5046523;28;20037;-80
2021/09/21 03:02:53;;;;;;;9.23;5.63;;;;;;;11.96;73.60;101572.88;5038117;28;20521;-80
2021/09/21 03:05:24;;;;;;;9.88;5.57;;;;;;;11.95;73.15;101573.78;5045498;28;20037;-79
2021/09/21 03:08:02;;;;;;;7.05;5.35;;;;;;;11.93;73.35;101573.75;5045599;28;20029;-80
2021/09/21 03:18:32;;;;;;;10.70;6.60;;;;;;;11.80;73.92;101583.34;5041644;28;20045;-79
2021/09/21 03:20:57;;;;;;;10.15;5.97;;;;;;;11.83;73.27;101583.34;5046658;28;20039;-79
2021/09/21 03:23:23;;;;;;;9.93;6.22;;;;;;;11.81;73.01;101589.50;5043669;28;20400;-79
2021/09/21 03:25:48;;;;;;;7.82;4.95;;;;;;;11.79;73.11;101594.81;5047474;28;20033;-79
2021/09/21 03:28:14;;;;;;;8.10;5.20;;;;;;;11.83;72.96;101593.06;5044517;28;20030;-80
2021/09/21 03:30:39;;;;;;;7.80;5.60;;;;;;;11.84;72.93;101595.72;5046881;28;20483;-80
2021/09/21 03:33:04;;;;;;;7.60;4.97;;;;;;;11.87;72.57;101588.69;5043759;28;20628;-80
2021/09/21 03:35:30;;;;;;;8.38;5.00;;;;;;;11.84;72.58;101590.44;5046166;28;20253;-79
2021/09/21 03:37:55;;;;;;;8.15;5.55;;;;;;;11.91;73.03;101587.84;5045193;28;20548;-79
2021/09/21 03:40:21;;;;;;;9.63;5.82;;;;;;;11.99;72.88;101592.28;5044680;28;20048;-80
2021/09/21 03:42:46;;;;;;;9.52;5.43;;;;;;;12.02;72.63;101588.78;5046295;28;20483;-79
2021/09/21 03:45:12;;;;;;;9.10;4.90;;;;;;;12.08;72.65;101599.41;5018466;28;20080;-79
2021/09/21 03:47:37;;;;;;;7.47;5.13;;;;;;;12.10;72.65;101594.97;5046837;28;20029;-79
2021/09/21 03:50:04;;;;;;;8.45;4.57;;;;;;;12.11;72.40;101602.06;5037469;28;20078;-80
2021/09/21 03:52:29;;;;;;;8.50;5.03;;;;;;;12.06;72.38;101602.03;5041195;28;20037;-80
2021/09/21 03:54:55;;;;;;;9.68;5.60;;;;;;;11.97;71.67;101601.09;5033321;28;20037;-79
2021/09/21 03:57:20;;;;;;;8.68;5.07;;;;;;;11.91;72.01;101609.00;5044029;28;20033;-79
2021/09/21 03:59:45;;;;;;;8.95;5.07;;;;;;;11.85;72.64;101608.06;5039821;28;20036;-80
2021/09/21 04:02:11;;;;;;;8.05;5.35;;;;;;;11.88;72.60;101609.88;5035342;28;20744;-80
2021/09/21 04:04:36;;;;;;;7.93;5.47;;;;;;;11.86;73.04;101601.03;5043926;28;20071;-80
2021/09/21 04:07:02;;;;;;;14.25;6.55;;;;;;;11.87;73.55;101609.84;5044491;28;20487;-79
2021/09/21 04:09:27;;;;;;;10.10;5.38;;;;;;;11.87;73.53;101610.78;5044961;28;20037;-79
2021/09/21 04:11:53;;;;;;;9.88;5.60;;;;;;;11.92;73.44;101608.13;5040747;28;20068;-78
2021/09/21 04:14:18;;;;;;;7.72;5.15;;;;;;;12.01;73.22;101613.47;5031768;28;20124;-78
2021/09/21 04:16:43;;;;;;;8.23;5.72;;;;;;;12.03;73.85;101609.97;5046162;28;20531;-78
2021/09/21 04:19:09;;;;;;;9.85;6.25;;;;;;;12.05;73.75;101618.81;5041105;28;20465;-79
2021/09/21 04:21:34;;;;;;;8.07;5.60;;;;;;;12.07;73.50;101605.56;5028917;28;20029;-78
2021/09/21 04:24:00;;;;;;;10.55;5.28;;;;;;;12.09;73.05;101603.81;5032202;28;20116;-79
2021/09/21 04:26:25;;;;;;;7.45;4.20;;;;;;;12.12;73.34;101606.47;5038508;28;20038;-77
2021/09/21 04:28:50;;;;;;;5.85;4.18;;;;;;;12.11;73.24;101609.13;5033948;28;20040;-77
2021/09/21 04:31:22;;;;;;;7.85;4.93;;;;;;;12.07;73.68;101618.78;5034940;28;20033;-78
2021/09/21 04:33:47;;;;;;;7.70;5.35;;;;;;;12.01;73.93;101621.41;5042629;28;20036;-77
2021/09/21 04:36:13;;;;;;;8.65;4.88;;;;;;;11.97;74.25;101619.63;5036190;28;20048;-77
2021/09/21 04:38:40;;;;;;;7.57;4.97;;;;;;;11.94;74.67;101616.97;5044176;28;20032;-77
2021/09/21 04:41:05;;;;;;;6.35;4.43;;;;;;;11.97;75.20;101611.69;5041947;28;20405;-78
2021/09/21 04:43:32;;;;;;;8.50;5.80;;;;;;;11.94;75.14;101615.19;5039258;28;20037;-78
2021/09/21 04:45:58;;;;;;;10.10;6.55;;;;;;;11.83;75.98;101617.75;5045107;28;20029;-78
2021/09/21 04:48:24;;;;;;;11.18;8.10;;;;;;;11.79;76.16;101610.69;5043721;28;20057;-78
2021/09/21 04:50:49;;;;;;;9.63;5.72;;;;;;;11.87;75.06;101617.78;5042672;28;20041;-78
2021/09/21 04:53:15;;;;;;;5.55;4.43;;;;;;;11.91;75.18;101623.13;5035517;28;20120;-78
2021/09/21 04:55:41;;;;;;;9.40;5.22;;;;;;;11.98;75.24;101630.22;5042887;28;20142;-79
2021/09/21 04:58:06;;;;;;;9.25;5.00;;;;;;;12.01;75.05;101632.00;5043460;28;20047;-78
2021/09/21 05:00:32;;;;;;;7.50;4.70;;;;;;;12.01;74.99;101630.22;5037858;28;20029;-77
2021/09/21 05:02:58;;;;;;;7.85;5.82;;;;;;;12.03;75.38;101633.78;5041820;28;20475;-78
2021/09/21 05:05:23;;;;;;;9.73;4.93;;;;;;;12.05;75.21;101629.38;5039786;28;20394;-79
2021/09/21 05:07:49;;;;;;;8.95;4.82;;;;;;;11.97;75.69;101622.25;5045195;28;20032;-79
2021/09/21 05:10:16;;;;;;;6.18;4.55;;;;;;;12.02;75.61;101625.81;5025135;28;20419;-79
2021/09/21 05:12:42;;;;;;;7.75;5.13;;;;;;;12.06;75.65;101628.50;5042868;28;20033;-79
2021/09/21 05:15:09;;;;;;;7.50;4.80;;;;;;;12.08;75.19;101620.59;5043487;28;20090;-80
2021/09/21 05:17:34;;;;;;;7.28;5.40;;;;;;;12.02;75.73;101621.41;5044112;28;20045;-79
2021/09/21 05:20:00;;;;;;;8.80;5.38;;;;;;;12.03;75.84;101639.06;5041380;28;20037;-79
2021/09/21 05:22:25;;;;;;;6.50;5.00;;;;;;;12.04;75.70;101632.00;5037977;28;20624;-80
2021/09/21 05:24:50;;;;;;;8.77;5.93;;;;;;;11.95;76.23;101629.34;5027278;28;20029;-80
2021/09/21 05:27:16;;;;;;;9.00;5.82;;;;;;;12.02;76.44;101628.47;5034770;28;20056;-79
2021/09/21 05:29:42;;;;;;;8.68;5.32;;;;;;;12.06;75.94;101640.84;5037930;28;20090;-78
2021/09/21 05:32:08;;;;;;;8.98;5.70;;;;;;;12.13;75.74;101645.31;5013337;28;20070;-80
2021/09/21 05:34:33;;;;;;;8.60;5.32;;;;;;;12.12;75.92;101648.81;5042720;28;20120;-79
2021/09/21 05:36:58;;;;;;;7.93;5.32;;;;;;;12.13;75.95;101661.19;5040599;28;20041;-80
2021/09/21 05:39:24;;;;;;;8.82;5.78;;;;;;;12.09;76.59;101663.78;5044418;28;20037;-79
2021/09/21 05:41:49;;;;;;;7.95;5.60;;;;;;;12.08;76.21;101662.91;5041229;28;20048;-79
2021/09/21 05:44:15;;;;;;;10.05;6.47;;;;;;;12.13;76.30;101661.19;5040716;28;20060;-79
2021/09/21 05:46:40;;;;;;;9.48;6.63;;;;;;;12.15;76.31;101669.13;5040042;28;20025;-79
2021/09/21 05:49:06;;;;;;;9.10;7.00;;;;;;;12.18;76.43;101664.75;5038770;28;20557;-79
2021/09/21 05:51:31;;;;;;;7.28;5.43;;;;;;;12.26;76.49;101667.41;5032981;28;20506;-80
2021/09/21 05:53:57;;;;;;;8.93;6.15;;;;;;;12.32;76.41;101675.41;5044199;28;20123;-78
2021/09/21 05:56:23;;;;;;;13.30;6.90;;;;;;;12.38;75.51;101678.06;5041872;28;20124;-79
2021/09/21 05:58:49;;;;;;;10.13;6.80;;;;;;;12.40;75.31;101667.50;5027039;28;20048;-79
2021/09/21 06:01:15;;;;;;;9.95;5.85;;;;;;;12.47;74.61;101670.16;5039879;28;20021;-80
2021/09/21 06:03:41;;;;;;;9.10;6.53;;;;;;;12.46;74.95;101670.16;5044587;28;20087;-79
2021/09/21 06:06:06;;;;;;;12.00;6.95;;;;;;;12.47;75.02;101674.56;5040470;28;20048;-79
2021/09/21 06:08:31;;;;;;;7.65;5.38;;;;;;;12.54;74.19;101686.94;5042455;28;20479;-80
2021/09/21 06:10:57;;;;;;;9.07;5.00;;;;;;;12.58;73.64;101680.81;5043364;28;20041;-79
2021/09/21 06:13:22;;;;;;;8.82;6.40;;;;;;;12.50;73.60;101690.47;5042115;28;20154;-80
2021/09/21 06:15:48;;;;;;;10.20;6.05;;;;;;;12.54;73.73;101694.03;5043589;28;20787;-79
2021/09/21 06:18:15;;;;;;;9.77;5.80;;;;;;;12.56;73.23;101709.03;5041175;28;20041;-78
2021/09/21 06:20:40;;;;;;;11.07;5.88;;;;;;;12.56;73.02;101702.84;5016000;28;20052;-78
2021/09/21 06:23:07;;;;;;;8.30;5.43;;;;;;;12.58;73.33;101706.41;5042712;28;20036;-78
2021/09/21 06:25:32;;;;;;;7.78;5.10;;;;;;;12.55;73.35;101712.56;5017171;28;20468;-78
2021/09/21 06:27:58;;;;;;;8.32;5.88;;;;;;;12.51;73.37;101716.06;5046197;28;20064;-78
2021/09/21 06:30:23;;;;;;;10.00;6.00;;;;;;;12.58;72.91;101717.88;5034940;28;20033;-78
2021/09/21 06:32:48;;;;;;;8.18;5.60;;;;;;;12.56;72.67;101719.63;5039186;28;20056;-78
2021/09/21 06:35:14;;;;;;;7.88;5.00;;;;;;;12.65;72.25;101719.69;5044305;28;20391;-78
2021/09/21 06:37:40;;;;;;;7.82;5.70;;;;;;;12.68;72.24;101714.41;5047534;28;20079;-78
2021/09/21 06:40:07;;;;;;;8.55;5.30;;;;;;;12.78;71.52;101706.47;5045499;28;20091;-77
2021/09/21 06:42:33;;;;;;;8.88;6.00;;;;;;;12.86;71.70;101708.28;5037336;28;20060;-78
2021/09/21 06:45:01;;;;;;;11.15;7.25;;;;;;;13.00;71.54;101710.09;5043498;28;20033;-78
2021/09/21 06:47:26;;;;;;;12.00;6.72;;;;;;;13.08;71.49;101717.16;5045771;28;20037;-78
2021/09/21 06:49:51;;;;;;;9.57;5.75;;;;;;;13.20;71.50;101718.94;5042693;28;20043;-78
2021/09/21 06:52:17;;;;;;;6.60;5.20;;;;;;;13.25;71.19;101722.50;5036245;28;20490;-78
2021/09/21 06:54:42;;;;;;;8.98;7.20;;;;;;;13.29;70.64;101719.00;5046314;28;20512;-78
2021/09/21 06:57:07;;;;;;;7.90;5.82;;;;;;;13.37;69.94;101721.69;5035931;28;20071;-78
2021/09/21 06:59:33;;;;;;;10.07;6.88;;;;;;;13.31;69.99;101711.06;5028901;28;20071;-78
2021/09/21 07:01:58;;;;;;;9.40;7.43;;;;;;;13.52;69.90;101718.16;5010138;28;20044;-78
2021/09/21 07:04:24;;;;;;;9.68;7.55;;;;;;;13.54;68.60;101716.38;5047441;28;20025;-78
2021/09/21 07:06:49;;;;;;;11.90;8.82;;;;;;;13.65;69.13;101722.59;5043441;28;20033;-78
2021/09/21 07:09:14;;;;;;;9.35;5.68;;;;;;;13.75;68.13;101731.41;5037718;28;20079;-78
2021/09/21 07:11:40;;;;;;;9.90;6.57;;;;;;;13.77;68.57;101727.00;5044163;28;20056;-78
2021/09/21 07:14:05;;;;;;;10.68;6.38;;;;;;;13.82;68.53;101727.88;5019792;28;20048;-78
2021/09/21 07:16:31;;;;;;;11.30;6.55;;;;;;;13.78;68.38;101734.06;5027147;28;20045;-77
2021/09/21 07:18:56;;;;;;;7.57;5.07;;;;;;;13.84;68.26;101726.13;5044927;28;20120;-78
2021/09/21 07:21:21;;;;;;;9.70;6.53;;;;;;;13.77;68.50;101733.19;5045645;28;20041;-78
2021/09/21 07:23:48;;;;;;;9.32;5.93;;;;;;;13.72;68.92;101732.28;5019040;28;20055;-78
2021/09/21 07:26:13;;;;;;;11.85;5.93;;;;;;;13.69;68.88;101737.59;5044868;28;20029;-78
2021/09/21 07:28:39;;;;;;;9.90;6.38;;;;;;;13.62;68.75;101740.25;5034553;28;20064;-78
2021/09/21 07:31:04;;;;;;;10.20;6.45;;;;;;;13.65;69.16;101743.81;5045425;28;20037;-78
2021/09/21 07:37:02;;;;;;;9.43;6.85;;;;;;;13.74;69.18;101743.78;4960168;28;20054;-78
2021/09/21 07:39:28;;;;;;;9.18;5.97;;;;;;;13.77;69.37;101757.06;5045169;28;20036;-78
2021/09/21 07:41:53;;;;;;;11.10;6.97;;;;;;;13.88;68.95;101757.06;5042584;28;20037;-78
2021/09/21 07:44:19;;;;;;;9.05;6.75;;;;;;;14.03;68.88;101746.44;5046458;28;20033;-78
2021/09/21 07:46:44;;;;;;;9.18;6.45;;;;;;;14.17;68.77;101758.81;5043567;28;20029;-77
2021/09/21 07:49:10;;;;;;;9.55;6.32;;;;;;;14.36;67.93;101757.03;5044797;28;20041;-78
2021/09/21 07:51:35;;;;;;;11.48;6.43;;;;;;;14.44;68.07;101768.50;5053458;28;20472;-78
2021/09/21 07:54:01;;;;;;;9.88;7.07;;;;;;;14.59;67.56;101776.47;5053519;28;20063;-78
2021/09/21 07:56:28;;;;;;;11.25;6.75;;;;;;;14.67;67.47;101776.41;5038915;28;20033;-78
2021/09/21 07:58:53;;;;;;;10.88;6.38;;;;;;;14.65;67.24;101776.44;5044556;28;20407;-78
2021/09/21 08:01:36;;;;;;;10.30;6.75;;;;;;;14.79;66.53;101780.81;5016357;28;20033;-77
2021/09/21 08:04:03;;;;;;;10.50;6.38;;;;;;;14.93;66.23;101788.75;5042603;28;20083;-78
2021/09/21 08:06:28;;;;;;;12.27;7.15;;;;;;;15.02;66.22;101784.28;5037098;28;20032;-78
2021/09/21 08:08:54;;;;;;;11.85;7.82;;;;;;;15.09;66.29;101794.00;5044082;28;20031;-78
2021/09/21 08:11:20;;;;;;;9.45;6.55;;;;;;;15.21;65.54;101793.03;5045953;28;20073;-79
2021/09/21 08:13:45;;;;;;;13.73;7.78;;;;;;;15.27;65.80;101803.66;5044374;28;20087;-77
2021/09/21 08:16:10;;;;;;;9.57;5.78;;;;;;;15.29;65.26;101798.31;5045034;28;20075;-78
2021/09/21 08:18:36;;;;;;;12.23;6.50;;;;;;;15.40;65.65;101800.91;5044550;28;20469;-79
2021/09/21 08:21:02;;;;;;;10.18;7.28;;;;;;;15.71;65.36;101796.31;5043854;28;20052;-79
2021/09/21 08:23:27;;;;;;;9.93;6.43;;;;;;;15.73;64.78;101803.41;5045488;28;20033;-78
2021/09/21 08:25:53;;;;;;;8.65;5.22;;;;;;;15.86;64.28;101806.84;5034802;28;20099;-79
2021/09/21 08:28:18;;;;;;;12.35;6.53;;;;;;;15.67;64.36;101799.88;5046710;28;20060;-79
2021/09/21 08:30:43;;;;;;;9.55;6.55;;;;;;;15.82;64.86;101804.22;5043084;28;20183;-79
2021/09/21 08:33:09;;;;;;;9.25;6.53;;;;;;;15.93;64.70;101808.56;5046285;28;20040;-79
2021/09/21 08:35:34;;;;;;;9.52;6.30;;;;;;;15.83;64.67;101800.69;5043587;28;20480;-78
2021/09/21 08:38:00;;;;;;;7.70;5.78;;;;;;;15.74;64.83;101802.47;5045853;28;20047;-78
2021/09/21 08:40:26;;;;;;;8.00;5.93;;;;;;;15.72;64.97;101804.31;5044471;28;20040;-79
2021/09/21 08:42:51;;;;;;;7.22;5.75;;;;;;;15.89;64.49;101806.81;5035525;28;20183;-79
2021/09/21 08:45:17;;;;;;;12.48;6.05;;;;;;;16.09;64.12;101800.47;5043593;28;20033;-79
2021/09/21 08:47:43;;;;;;;9.05;5.95;;;;;;;16.23;64.21;101806.53;5018031;28;20093;-78
2021/09/21 08:50:12;;;;;;;7.90;5.68;;;;;;;16.46;63.80;101806.31;5045253;28;20048;-78
2021/09/21 08:52:40;;;;;;;11.18;5.82;;;;;;;16.61;62.76;101797.25;5044436;28;20041;-79
2021/09/21 08:55:11;;;;;;;10.38;6.15;;;;;;;16.79;62.77;101797.13;5045780;28;20068;-79
2021/09/21 08:57:39;;;;;;;9.25;6.20;;;;;;;16.97;62.15;101795.09;5035857;28;20037;-79
2021/09/21 09:00:07;;;;;;;9.00;4.90;;;;;;;16.82;61.61;101802.41;5045125;28;20060;-79
2021/09/21 09:02:33;;;;;;;8.32;5.35;;;;;;;16.76;62.63;101806.88;5044478;28;20096;-78
2021/09/21 09:05:03;;;;;;;6.38;4.72;;;;;;;16.69;62.66;101810.50;5041641;28;20032;-79
2021/09/21 09:07:35;;;;;;;8.07;4.70;;;;;;;16.33;62.51;101810.88;5047531;28;20025;-78
2021/09/21 09:10:03;;;;;;;6.23;4.13;;;;;;;16.12;62.23;101814.63;5043821;28;20037;-79
2021/09/21 09:12:34;;;;;;;9.07;4.75;;;;;;;16.06;63.04;101820.00;5035522;28;20067;-79
2021/09/21 09:15:12;;;;;;;8.75;4.82;;;;;;;15.99;63.60;101807.63;5041718;28;20040;-79
2021/09/21 09:17:38;;;;;;;8.75;5.28;;;;;;;16.13;63.54;101804.84;5013391;28;20037;-79
2021/09/21 09:20:05;;;;;;;8.20;5.10;;;;;;;16.34;63.13;101801.09;5029077;28;20059;-79
2021/09/21 09:22:31;;;;;;;9.50;5.35;;;;;;;16.27;63.14;101804.72;5038610;28;20045;-78
2021/09/21 09:25:03;;;;;;;7.95;4.97;;;;;;;16.13;63.36;101804.84;5046177;28;20044;-78
2021/09/21 09:27:44;;;;;;;8.45;4.82;;;;;;;16.08;63.95;101799.56;5029495;28;20040;-79
2021/09/21 09:30:12;;;;;;;6.90;4.25;;;;;;;16.29;62.92;101805.59;5033439;28;20045;-79
2021/09/21 09:32:43;;;;;;;8.10;4.57;;;;;;;16.43;62.13;101801.91;5043203;28;20126;-77
2021/09/21 09:35:09;;;;;;;6.82;4.22;;;;;;;16.17;62.52;101804.81;5043812;28;20060;-79
2021/09/21 09:37:38;;;;;;;8.63;4.55;;;;;;;16.21;62.79;101798.53;5043888;28;20032;-79
2021/09/21 09:40:05;;;;;;;6.47;4.82;;;;;;;16.28;62.58;101793.19;5045070;28;20535;-79
2021/09/21 09:42:34;;;;;;;8.05;4.43;;;;;;;16.30;62.66;101794.94;5044042;28;20115;-79
2021/09/21 09:45:03;;;;;;;8.73;4.68;;;;;;;16.41;63.15;101794.81;5044581;28;20039;-79
2021/09/21 09:47:29;;;;;;;8.57;4.90;;;;;;;16.57;63.31;101782.22;5044037;28;20029;-79
2021/09/21 09:49:56;;;;;;;8.90;4.88;;;;;;;16.63;63.47;101780.34;5042241;28;20645;-79
2021/09/21 09:52:21;;;;;;;9.73;5.28;;;;;;;16.78;62.88;101765.13;5029266;28;20037;-78
2021/09/21 09:54:47;;;;;;;8.98;6.90;;;;;;;17.18;61.58;101772.59;5034104;28;20484;-79
2021/09/21 09:57:14;;;;;;;8.45;5.90;;;;;;;17.45;60.20;101779.34;5038987;28;20060;-79
2021/09/21 09:59:41;;;;;;;8.77;5.40;;;;;;;17.70;59.34;101786.06;5042440;28;20033;-79
2021/09/21 10:02:07;;;;;;;9.55;5.00;;;;;;;18.10;58.41;101773.84;5042594;28;20051;-78
2021/09/21 10:04:33;;;;;;;8.48;5.13;;;;;;;18.24;57.17;101774.50;5044813;28;20041;-78
2021/09/21 10:06:58;;;;;;;7.35;4.63;;;;;;;18.18;57.35;101774.59;5056459;28;20060;-78
2021/09/21 10:09:24;;;;;;;8.88;4.35;;;;;;;18.37;56.22;101773.38;5044958;28;20401;-78
2021/09/21 10:11:55;;;;;;;7.15;3.65;;;;;;;18.23;55.81;101780.75;5045531;28;20085;-79
2021/09/21 10:14:22;;;;;;;6.30;4.30;;;;;;;17.88;55.80;101776.03;5042051;28;20033;-79
2021/09/21 10:16:52;;;;;;;8.55;4.82;;;;;;;17.88;56.99;101773.34;5049776;28;20037;-78
2021/09/21 10:19:23;;;;;;;6.13;3.80;;;;;;;18.05;56.85;101767.72;5041931;28;20053;-79
2021/09/21 10:21:53;;;;;;;5.40;3.67;;;;;;;17.91;56.32;101770.63;5047543;28;20033;-79
2021/09/21 10:24:37;;;;;;;6.07;3.15;;;;;;;17.60;56.95;101768.41;5034679;28;20043;-78
2021/09/21 10:27:08;;;;;;;6.57;4.15;;;;;;;17.40;57.19;101771.41;5045376;28;20045;-78
2021/09/21 10:29:35;;;;;;;8.25;4.40;;;;;;;17.01;58.50;101764.84;5011323;28;20045;-78
2021/09/21 10:32:01;;;;;;;7.10;4.68;;;;;;;16.93;58.98;101767.59;5031320;28;20043;-78
2021/09/21 10:34:38;;;;;;;7.45;4.97;;;;;;;16.82;60.16;101764.16;5045203;28;20048;-78
2021/09/21 10:37:05;;;;;;;9.00;4.82;;;;;;;16.80;60.65;101776.66;5041543;28;20037;-79
2021/09/21 10:39:31;;;;;;;8.23;4.18;;;;;;;16.44;61.35;101784.13;5047085;28;20087;-78
2021/09/21 10:42:02;;;;;;;5.95;4.35;;;;;;;16.20;62.38;101785.25;5033847;28;20045;-78
2021/09/21 10:44:28;;;;;;;10.00;5.03;;;;;;;15.99;63.18;101789.00;5018555;28;20399;-79
2021/09/21 10:47:00;;;;;;;7.00;4.07;;;;;;;16.04;63.00;101787.19;5047107;28;20111;-78
2021/09/21 10:49:42;;;;;;;5.90;4.15;;;;;;;16.00;63.02;101772.13;5040814;28;20030;-78
2021/09/21 10:52:13;;;;;;;6.80;3.80;;;;;;;15.95;62.88;101788.13;5045010;28;20118;-78
2021/09/21 10:54:41;;;;;;;6.78;4.00;;;;;;;15.88;63.18;101791.75;5045396;28;20048;-79
2021/09/21 10:57:16;;;;;;;6.60;3.90;;;;;;;15.93;62.73;101783.75;5044266;28;20056;-78
2021/09/21 11:00:12;;;;;;;5.80;3.47;;;;;;;16.01;63.44;101784.56;5014456;28;20120;-78
2021/09/21 11:02:46;;;;;;;6.68;3.42;;;;;;;16.12;63.11;101781.78;5014040;28;20057;-79
2021/09/21 11:05:16;;;;;;;8.15;4.90;;;;;;;16.19;62.69;101792.38;5042827;28;20495;-79
2021/09/21 11:07:53;;;;;;;9.30;5.40;;;;;;;16.23;63.73;101782.56;5052420;28;20047;-79
2021/09/21 11:10:19;;;;;;;9.27;4.88;;;;;;;16.32;63.97;101789.56;5052992;28;20112;-79
2021/09/21 11:12:50;;;;;;;8.57;5.22;;;;;;;16.20;64.67;101799.44;5052831;28;20033;-79
2021/09/21 11:15:16;;;;;;;10.55;5.50;;;;;;;16.20;64.30;101794.13;5053317;28;20075;-79
2021/09/21 11:17:42;;;;;;;10.05;5.45;;;;;;;16.15;64.27;101798.63;5053097;28;20519;-79
2021/09/21 11:20:07;;;;;;;9.18;5.32;;;;;;;16.19;64.56;101800.38;5054649;28;20037;-79
2021/09/21 11:22:36;;;;;;;7.50;5.43;;;;;;;16.25;64.75;101803.88;5026770;28;20389;-78
2021/09/21 11:25:06;;;;;;;7.95;5.60;;;;;;;16.31;63.64;101798.47;5053294;28;20036;-78
2021/09/21 11:27:38;;;;;;;9.48;5.90;;;;;;;16.24;64.13;101797.63;5053368;28;20095;-79
2021/09/21 11:30:10;;;;;;;9.32;5.55;;;;;;;16.44;63.86;101802.78;5052210;28;20091;-78
2021/09/21 11:32:36;;;;;;;15.63;5.63;;;;;;;16.56;63.78;101799.13;5027236;28;20033;-78
2021/09/21 11:35:08;;;;;;;9.25;5.25;;;;;;;16.68;62.43;101798.97;5052154;28;20032;-78
2021/09/21 11:37:33;;;;;;;10.45;5.57;;;;;;;16.68;62.41;101804.28;5053554;28;20208;-79